Time;durP1;ratioP1;P1;durP2;ratioP2;P2;SDS_P1;SDS_P2;PMS_P1;PMS_P2;Temp;Humidity;BMP_temperature;BMP_pressure;BME280_temperature;BME280_humidity;BME280_pressure;Samples;Min_cycle;Max_cycle;Signal;HPM_P1;HPM_P2
2021/12/20 00:02:17;;;;;;;21.70;8.60;;;;;;;-0.78;84.55;98491.13;105340;1322;22649;-77
2021/12/20 00:04:46;;;;;;;29.40;10.20;;;;;;;-0.74;84.46;98488.67;105613;1322;22809;-77
2021/12/20 00:07:13;;;;;;;22.60;8.00;;;;;;;-0.66;84.34;98486.08;105334;1322;22727;-76
2021/12/20 00:09:40;;;;;;;24.10;8.60;;;;;;;-0.60;84.52;98481.67;105350;1322;22640;-78
2021/12/20 00:12:08;;;;;;;26.50;9.00;;;;;;;-0.57;84.62;98475.63;105361;1319;22639;-77
2021/12/20 00:14:35;;;;;;;19.60;7.20;;;;;;;-0.57;84.79;98476.82;105367;1321;22584;-77
2021/12/20 00:17:02;;;;;;;21.10;7.40;;;;;;;-0.57;84.74;98484.52;105321;1322;22585;-76
2021/12/20 00:19:29;;;;;;;18.70;6.80;;;;;;;-0.59;84.63;98487.63;105283;1322;22725;-75
2021/12/20 00:21:56;;;;;;;14.70;5.80;;;;;;;-0.58;84.52;98491.38;105342;1322;22648;-76
2021/12/20 00:24:23;;;;;;;16.40;6.20;;;;;;;-0.53;84.36;98488.87;105336;1320;22765;-76
2021/12/20 00:26:50;;;;;;;15.90;6.30;;;;;;;-0.49;84.40;98489.13;105320;1322;22653;-76
2021/12/20 00:29:17;;;;;;;15.60;6.30;;;;;;;-0.50;84.43;98493.91;105298;1321;25522;-77
2021/12/20 00:31:44;;;;;;;13.40;5.00;;;;;;;-0.51;84.60;98493.62;105361;1320;22638;-79
2021/12/20 00:34:11;;;;;;;16.20;5.40;;;;;;;-0.53;84.56;98491.09;105341;1322;25123;-77
2021/12/20 00:36:38;;;;;;;21.90;6.80;;;;;;;-0.55;84.46;98492.02;105337;1320;22704;-77
2021/12/20 00:41:50;;;;;;;25.30;9.50;;;;;;;-0.54;84.17;98496.95;105331;1317;22703;-77
2021/12/20 00:44:17;;;;;;;18.20;7.20;;;;;;;-0.51;84.42;98504.38;105180;1322;22746;-76
2021/12/20 00:46:45;;;;;;;22.50;8.10;;;;;;;-0.48;84.58;98498.50;105323;1322;22591;-77
2021/12/20 00:49:12;;;;;;;17.80;6.50;;;;;;;-0.47;84.90;98497.46;105327;1321;22606;-77
2021/12/20 00:51:38;;;;;;;17.00;6.80;;;;;;;-0.46;84.85;98498.83;105260;1322;22585;-78
2021/12/20 00:54:05;;;;;;;18.80;7.30;;;;;;;-0.46;84.69;98500.52;105302;1322;22658;-77
2021/12/20 00:56:32;;;;;;;18.90;7.80;;;;;;;-0.46;84.50;98503.79;105329;1321;22653;-77
2021/12/20 00:58:59;;;;;;;16.50;7.30;;;;;;;-0.42;84.59;98506.58;105354;1322;22688;-78
2021/12/20 01:01:26;;;;;;;17.40;6.90;;;;;;;-0.37;84.68;98505.98;105232;1320;22593;-77
2021/12/20 01:03:53;;;;;;;15.70;6.60;;;;;;;-0.34;85.00;98503.31;105303;1322;22567;-78
2021/12/20 01:06:20;;;;;;;14.40;5.60;;;;;;;-0.34;85.27;98497.66;105319;1322;22762;-77
2021/12/20 01:08:49;;;;;;;13.30;5.80;;;;;;;-0.35;84.96;98495.27;105302;1322;22886;-77
2021/12/20 01:11:21;;;;;;;12.50;6.20;;;;;;;-0.37;85.06;98498.94;105351;1322;22590;-79
2021/12/20 01:13:50;;;;;;;14.10;6.10;;;;;;;-0.35;84.74;98503.34;105344;1322;22730;-78
2021/12/20 01:16:17;;;;;;;18.00;7.20;;;;;;;-0.33;84.68;98504.15;105347;1322;23388;-80
2021/12/20 01:18:44;;;;;;;30.90;10.80;;;;;;;-0.31;84.67;98510.94;105363;1319;22593;-79
2021/12/20 01:21:11;;;;;;;38.70;11.70;;;;;;;-0.26;84.92;98514.94;105320;1322;22630;-78
2021/12/20 01:23:39;;;;;;;29.40;9.30;;;;;;;-0.27;85.23;98516.85;105340;1322;22666;-78
2021/12/20 01:26:06;;;;;;;12.40;5.00;;;;;;;-0.24;85.38;98513.35;105389;1322;26788;-79
2021/12/20 01:28:33;;;;;;;11.00;4.60;;;;;;;-0.27;85.33;98515.65;105356;1320;25883;-79
2021/12/20 01:31:00;;;;;;;10.80;4.30;;;;;;;-0.28;85.19;98512.42;105249;1321;22596;-79
2021/12/20 01:33:27;;;;;;;14.10;4.80;;;;;;;-0.28;84.90;98515.51;105256;1322;22738;-78
2021/12/20 01:35:56;;;;;;;16.30;4.50;;;;;;;-0.29;84.69;98515.02;105291;1322;22596;-78
2021/12/20 01:38:24;;;;;;;10.30;4.00;;;;;;;-0.25;84.66;98515.77;105353;1320;22582;-79
2021/12/20 01:40:52;;;;;;;12.60;4.80;;;;;;;-0.27;84.77;98510.16;105338;1319;22575;-78
2021/12/20 01:43:19;;;;;;;13.60;5.80;;;;;;;-0.25;85.11;98514.39;105324;1322;22689;-78
2021/12/20 01:45:50;;;;;;;9.80;4.50;;;;;;;-0.23;85.40;98510.92;105328;1322;22588;-78
2021/12/20 01:48:19;;;;;;;10.80;3.80;;;;;;;-0.24;85.11;98505.46;105405;1322;22581;-78
2021/12/20 01:51:02;;;;;;;11.30;4.60;;;;;;;-0.25;85.01;98509.25;105390;1322;24394;-78
2021/12/20 01:53:29;;;;;;;8.50;3.20;;;;;;;-0.25;84.77;98513.37;105312;1321;22567;-79
2021/12/20 01:55:57;;;;;;;12.70;4.60;;;;;;;-0.27;84.58;98522.48;105316;1322;25785;-79
2021/12/20 01:58:26;;;;;;;17.40;6.80;;;;;;;-0.23;84.64;98519.31;105298;1321;22600;-79
2021/12/20 02:03:48;;;;;;;15.80;6.70;;;;;;;-0.13;85.07;98511.54;105299;1321;22611;-78
2021/12/20 02:06:25;;;;;;;12.90;4.40;;;;;;;-0.13;85.02;98516.66;105355;1320;22589;-79
2021/12/20 02:08:53;;;;;;;10.30;4.90;;;;;;;-0.19;84.85;98519.91;105347;1320;22584;-78
2021/12/20 02:11:21;;;;;;;12.10;4.50;;;;;;;-0.25;84.67;98515.09;105322;1322;22653;-78
2021/12/20 02:13:49;;;;;;;10.40;3.70;;;;;;;-0.28;84.55;98511.92;105380;1321;22654;-78
2021/12/20 02:16:17;;;;;;;7.90;3.50;;;;;;;-0.30;84.45;98512.96;105381;1321;22647;-78
2021/12/20 02:18:44;;;;;;;13.00;7.30;;;;;;;-0.23;84.39;98514.70;105314;1321;23428;-79
2021/12/20 02:21:11;;;;;;;12.70;7.00;;;;;;;-0.25;84.46;98517.13;105355;1322;22823;-78
2021/12/20 02:23:38;;;;;;;28.00;10.00;;;;;;;-0.22;84.79;98519.13;105258;1323;25339;-78
2021/12/20 02:26:06;;;;;;;10.70;5.30;;;;;;;-0.26;84.80;98516.80;105384;1320;22583;-78
2021/12/20 02:28:41;;;;;;;8.10;3.30;;;;;;;-0.31;84.81;98515.58;105373;1321;23865;-78
2021/12/20 02:39:20;;;;;;;7.30;3.70;;;;;;;-0.30;84.24;98522.90;105409;1322;22573;-78
2021/12/20 02:41:47;;;;;;;11.60;4.10;;;;;;;-0.28;84.47;98526.27;105376;1322;22621;-78
2021/12/20 02:44:19;;;;;;;9.50;3.60;;;;;;;-0.24;84.79;98527.71;105371;1322;22901;-78
2021/12/20 02:47:03;;;;;;;6.30;3.50;;;;;;;-0.28;84.70;98524.57;105587;1318;22654;-78
2021/12/20 02:49:32;;;;;;;7.70;3.30;;;;;;;-0.29;84.63;98522.55;105582;1319;22711;-79
2021/12/20 02:52:07;;;;;;;11.10;4.00;;;;;;;-0.30;84.23;98519.33;105569;1318;22754;-79
2021/12/20 02:54:36;;;;;;;6.20;3.60;;;;;;;-0.30;84.14;98523.06;105524;1319;22612;-78
2021/12/20 02:57:04;;;;;;;12.00;4.30;;;;;;;-0.27;84.07;98520.27;105529;1319;22609;-78
2021/12/20 02:59:31;;;;;;;7.60;4.20;;;;;;;-0.24;84.38;98524.13;105518;1319;22698;-78
2021/12/20 03:02:03;;;;;;;8.80;4.40;;;;;;;-0.24;84.59;98518.83;105543;1319;25913;-78
2021/12/20 03:04:31;;;;;;;8.90;3.90;;;;;;;-0.26;84.66;98515.95;105558;1319;22634;-79
2021/12/20 03:07:05;;;;;;;8.40;3.90;;;;;;;-0.29;84.46;98518.10;105501;1319;22588;-78
2021/12/20 03:09:37;;;;;;;9.70;3.60;;;;;;;-0.30;84.23;98521.88;105455;1319;25607;-79
2021/12/20 03:12:07;;;;;;;9.50;3.80;;;;;;;-0.32;84.12;98527.23;105469;1319;22590;-79
2021/12/20 03:14:41;;;;;;;8.70;3.60;;;;;;;-0.33;83.99;98524.85;105530;1319;22584;-79
2021/12/20 03:17:09;;;;;;;8.90;4.40;;;;;;;-0.29;83.96;98525.28;105575;1319;22664;-79
2021/12/20 03:19:37;;;;;;;9.10;4.10;;;;;;;-0.28;84.11;98523.87;105585;1319;22645;-78
2021/12/20 03:22:06;;;;;;;14.20;4.60;;;;;;;-0.26;84.40;98528.45;105577;1320;22646;-79
2021/12/20 03:24:34;;;;;;;11.60;4.20;;;;;;;-0.29;84.42;98526.48;105582;1320;25531;-78
2021/12/20 03:27:01;;;;;;;8.70;3.80;;;;;;;-0.30;84.34;98526.50;105499;1317;22630;-78
2021/12/20 03:29:28;;;;;;;7.20;3.60;;;;;;;-0.31;84.18;98528.23;105406;1320;22723;-79
2021/12/20 03:31:55;;;;;;;10.70;4.10;;;;;;;-0.32;83.98;98521.92;105445;1320;22589;-79
2021/12/20 03:34:22;;;;;;;10.10;4.00;;;;;;;-0.31;83.78;98520.53;105417;1320;22647;-78
2021/12/20 03:36:49;;;;;;;11.20;4.00;;;;;;;-0.29;83.68;98523.90;105419;1316;22595;-78
2021/12/20 03:39:17;;;;;;;8.60;3.10;;;;;;;-0.25;83.87;98527.58;105425;1320;22646;-78
2021/12/20 03:41:44;;;;;;;9.90;4.90;;;;;;;-0.22;84.00;98529.55;105394;1320;22611;-78
2021/12/20 03:44:11;;;;;;;9.80;3.20;;;;;;;-0.24;84.14;98523.95;105436;1320;25476;-81
2021/12/20 03:46:39;;;;;;;7.60;3.10;;;;;;;-0.27;84.21;98523.69;105436;1320;22576;-81
2021/12/20 03:49:07;;;;;;;9.20;3.80;;;;;;;-0.29;83.75;98527.67;105412;1320;22782;-80
2021/12/20 03:51:35;;;;;;;8.50;3.60;;;;;;;-0.31;83.87;98523.45;105429;1313;23347;-81
2021/12/20 03:54:03;;;;;;;8.70;3.70;;;;;;;-0.31;83.49;98525.16;105407;1320;22718;-80
2021/12/20 03:56:32;;;;;;;8.90;3.90;;;;;;;-0.30;83.40;98522.23;105667;1320;22602;-81
2021/12/20 03:59:00;;;;;;;9.60;3.90;;;;;;;-0.26;83.42;98522.44;105758;1319;22722;-78
2021/12/20 04:01:27;;;;;;;11.30;3.90;;;;;;;-0.25;83.50;98525.34;105776;1320;22684;-78
2021/12/20 04:03:57;;;;;;;12.60;4.70;;;;;;;-0.24;83.77;98526.00;105731;1319;22642;-78
2021/12/20 04:06:24;;;;;;;8.10;3.60;;;;;;;-0.23;83.87;98532.66;105754;1320;22713;-78
2021/12/20 04:08:52;;;;;;;8.70;3.60;;;;;;;-0.25;83.64;98530.46;105726;1320;22566;-78
2021/12/20 04:11:20;;;;;;;7.10;3.10;;;;;;;-0.26;83.42;98529.11;105756;1319;22589;-78
2021/12/20 04:13:47;;;;;;;10.00;3.70;;;;;;;-0.27;82.95;98524.88;105746;1320;22598;-79
2021/12/20 04:16:14;;;;;;;10.60;4.10;;;;;;;-0.31;82.93;98524.45;105741;1320;25392;-79
2021/12/20 04:18:41;;;;;;;8.40;4.10;;;;;;;-0.28;83.09;98525.44;105711;1319;22646;-78
2021/12/20 04:21:10;;;;;;;11.90;4.10;;;;;;;-0.24;83.40;98524.81;105746;1319;22599;-78
2021/12/20 04:23:38;;;;;;;10.40;3.70;;;;;;;-0.26;83.51;98525.04;105761;1319;22646;-78
2021/12/20 04:26:05;;;;;;;11.30;4.00;;;;;;;-0.28;83.68;98528.67;105758;1320;22718;-78
2021/12/20 04:28:32;;;;;;;13.60;5.00;;;;;;;-0.29;83.45;98530.41;105713;1320;25496;-77
2021/12/20 04:31:00;;;;;;;9.00;3.70;;;;;;;-0.30;83.15;98532.48;105717;1319;22646;-78
2021/12/20 04:33:27;;;;;;;6.90;3.50;;;;;;;-0.33;82.96;98534.62;105739;1318;22727;-77
2021/12/20 04:35:54;;;;;;;8.10;3.70;;;;;;;-0.38;83.10;98534.89;105768;1320;22659;-77
2021/12/20 04:38:22;;;;;;;11.40;4.60;;;;;;;-0.33;83.03;98535.45;105736;1316;22719;-79
2021/12/20 04:40:49;;;;;;;11.30;4.20;;;;;;;-0.32;83.15;98541.60;105794;1320;22577;-78
2021/12/20 04:43:16;;;;;;;9.60;3.50;;;;;;;-0.31;83.58;98553.21;105812;1320;22649;-78
2021/12/20 04:45:43;;;;;;;11.50;4.40;;;;;;;-0.34;83.76;98556.52;105804;1320;23027;-80
2021/12/20 04:48:10;;;;;;;9.70;4.10;;;;;;;-0.37;83.88;98560.73;105807;1320;22566;-79
2021/12/20 04:50:38;;;;;;;8.60;3.50;;;;;;;-0.38;83.65;98555.44;105809;1320;22656;-79
2021/12/20 04:53:06;;;;;;;9.30;4.20;;;;;;;-0.39;83.43;98555.27;105796;1316;22593;-80
2021/12/20 04:55:34;;;;;;;10.10;4.60;;;;;;;-0.36;83.44;98560.02;105233;1317;598658;-80
2021/12/20 04:58:05;;;;;;;13.10;4.70;;;;;;;-0.34;83.47;98560.47;105554;1320;22623;-80
2021/12/20 05:00:34;;;;;;;10.00;3.90;;;;;;;-0.34;83.87;98565.76;105584;1319;22568;-80
2021/12/20 05:03:03;;;;;;;9.90;3.60;;;;;;;-0.33;84.23;98565.06;105555;1320;22581;-80
2021/12/20 05:05:30;;;;;;;9.20;4.10;;;;;;;-0.33;84.52;98573.27;105515;1320;22848;-81
2021/12/20 05:07:57;;;;;;;9.90;3.80;;;;;;;-0.33;84.48;98567.80;105561;1320;22571;-80
2021/12/20 05:10:26;;;;;;;9.40;3.60;;;;;;;-0.34;84.19;98563.19;105563;1320;24245;-81
2021/12/20 05:12:55;;;;;;;9.50;4.20;;;;;;;-0.35;84.07;98564.07;105545;1320;22580;-80
2021/12/20 05:15:24;;;;;;;11.60;4.60;;;;;;;-0.30;84.16;98569.45;105564;1320;24986;-79
2021/12/20 05:17:51;;;;;;;10.00;4.50;;;;;;;-0.26;84.32;98566.09;105567;1320;22605;-79
2021/12/20 05:20:20;;;;;;;9.30;3.40;;;;;;;-0.24;84.67;98563.31;105557;1320;22617;-79
2021/12/20 05:22:48;;;;;;;11.50;4.60;;;;;;;-0.27;84.66;98562.52;105535;1319;22577;-79
2021/12/20 05:25:15;;;;;;;8.80;3.40;;;;;;;-0.29;84.58;98560.37;105566;1319;22668;-78
2021/12/20 05:27:42;;;;;;;9.20;3.30;;;;;;;-0.30;84.23;98557.82;105595;1319;24329;-79
2021/12/20 05:30:10;;;;;;;9.80;4.20;;;;;;;-0.34;84.10;98557.55;105537;1319;23828;-81
2021/12/20 05:32:38;;;;;;;9.60;4.30;;;;;;;-0.39;84.11;98558.17;105554;1319;25835;-79
2021/12/20 05:35:07;;;;;;;13.20;4.80;;;;;;;-0.35;84.19;98564.08;105560;1319;22713;-78
2021/12/20 05:37:35;;;;;;;9.00;4.40;;;;;;;-0.32;84.29;98568.48;105591;1319;24225;-79
2021/12/20 05:40:04;;;;;;;8.80;3.60;;;;;;;-0.28;84.77;98565.31;105540;1316;22795;-79
2021/12/20 05:42:32;;;;;;;6.90;3.30;;;;;;;-0.29;84.78;98561.90;105521;1319;22733;-79
2021/12/20 05:44:59;;;;;;;10.10;3.80;;;;;;;-0.31;84.50;98564.52;105511;1319;22642;-80
2021/12/20 05:47:26;;;;;;;11.60;4.30;;;;;;;-0.36;84.37;98573.69;105572;1318;22649;-79
2021/12/20 05:49:53;;;;;;;9.60;3.40;;;;;;;-0.36;84.02;98579.86;105599;1316;22662;-78
2021/12/20 05:52:20;;;;;;;7.90;3.80;;;;;;;-0.39;83.97;98583.69;105473;1319;25245;-79
2021/12/20 05:54:48;;;;;;;11.50;4.80;;;;;;;-0.38;83.97;98589.64;105574;1319;22646;-79
2021/12/20 05:57:15;;;;;;;7.50;3.70;;;;;;;-0.33;84.09;98589.71;105612;1319;22581;-79
2021/12/20 05:59:42;;;;;;;11.80;4.60;;;;;;;-0.32;84.44;98588.65;105568;1319;22509;-79
2021/12/20 06:02:09;;;;;;;7.40;3.60;;;;;;;-0.31;84.66;98591.38;105582;1319;22644;-81
2021/12/20 06:04:36;;;;;;;9.80;4.40;;;;;;;-0.32;84.42;98591.74;105584;1317;22585;-80
2021/12/20 06:07:03;;;;;;;9.40;3.90;;;;;;;-0.37;84.26;98595.45;105558;1319;22627;-80
2021/12/20 06:09:31;;;;;;;6.60;2.90;;;;;;;-0.43;84.30;98597.77;105472;1319;27762;-78
2021/12/20 06:11:59;;;;;;;8.50;4.10;;;;;;;-0.43;84.05;98599.50;105552;1318;22663;-79
2021/12/20 06:14:27;;;;;;;8.70;4.70;;;;;;;-0.40;84.22;98604.05;105462;1319;22580;-79
2021/12/20 06:16:57;;;;;;;9.20;4.30;;;;;;;-0.41;84.52;98609.38;105483;1319;22714;-79
2021/12/20 06:19:25;;;;;;;8.70;4.20;;;;;;;-0.40;84.77;98613.81;105513;1319;24100;-79
2021/12/20 06:21:53;;;;;;;7.40;3.40;;;;;;;-0.41;84.95;98612.29;105560;1316;22670;-78
2021/12/20 06:24:21;;;;;;;5.70;3.00;;;;;;;-0.39;84.76;98613.12;105623;1319;22648;-79
2021/12/20 06:26:48;;;;;;;8.90;3.10;;;;;;;-0.44;84.62;98615.10;105551;1319;24165;-78
2021/12/20 06:29:15;;;;;;;9.10;4.60;;;;;;;-0.48;84.63;98611.75;105586;1319;22679;-79
2021/12/20 06:31:42;;;;;;;11.20;4.40;;;;;;;-0.47;84.47;98614.30;105533;1319;23346;-80
2021/12/20 06:34:10;;;;;;;9.80;4.60;;;;;;;-0.44;84.47;98624.33;105569;1318;22580;-79
2021/12/20 06:36:37;;;;;;;8.60;4.40;;;;;;;-0.42;84.56;98629.41;105559;1319;24282;-79
2021/12/20 06:39:05;;;;;;;9.10;4.40;;;;;;;-0.39;84.97;98627.83;105560;1319;22687;-79
2021/12/20 06:41:32;;;;;;;9.30;4.30;;;;;;;-0.39;85.25;98630.90;105520;1318;22614;-79
2021/12/20 06:44:01;;;;;;;7.70;4.50;;;;;;;-0.43;85.13;98632.17;105537;1317;22596;-77
2021/12/20 06:46:30;;;;;;;7.10;3.90;;;;;;;-0.45;85.06;98630.49;105535;1318;22583;-79
2021/12/20 06:48:57;;;;;;;10.50;4.50;;;;;;;-0.44;84.80;98633.39;105481;1319;22552;-78
2021/12/20 06:51:24;;;;;;;9.30;4.50;;;;;;;-0.47;84.68;98637.74;105553;1319;22585;-77
2021/12/20 06:53:51;;;;;;;12.60;5.60;;;;;;;-0.47;84.59;98644.27;105523;1319;22724;-78
2021/12/20 06:56:18;;;;;;;9.50;5.30;;;;;;;-0.45;84.60;98642.65;105481;1319;22741;-79
2021/12/20 06:58:45;;;;;;;11.30;5.50;;;;;;;-0.41;84.84;98642.23;105477;1319;22719;-79
2021/12/20 07:01:12;;;;;;;8.00;4.50;;;;;;;-0.36;85.19;98647.80;105406;1319;22571;-79
2021/12/20 07:03:39;;;;;;;6.50;3.70;;;;;;;-0.38;85.33;98652.97;105466;1319;22669;-79
2021/12/20 07:06:06;;;;;;;8.40;3.50;;;;;;;-0.40;85.32;98652.30;105531;1319;25281;-79
2021/12/20 07:08:33;;;;;;;8.80;4.20;;;;;;;-0.44;85.06;98654.09;105567;1319;22662;-79
2021/12/20 07:11:00;;;;;;;10.00;4.00;;;;;;;-0.44;84.98;98655.62;105561;1319;22585;-80
2021/12/20 07:13:27;;;;;;;8.00;4.70;;;;;;;-0.44;84.77;98652.89;105543;1319;24047;-80
2021/12/20 07:15:54;;;;;;;28.10;12.00;;;;;;;-0.40;84.84;98647.51;105546;1319;22716;-80
2021/12/20 07:18:21;;;;;;;15.40;6.40;;;;;;;-0.40;85.02;98651.11;105547;1319;24449;-80
2021/12/20 07:20:48;;;;;;;12.80;6.00;;;;;;;-0.34;85.33;98650.64;105575;1317;22612;-81
2021/12/20 07:23:15;;;;;;;10.10;4.50;;;;;;;-0.34;85.24;98653.73;105550;1320;24275;-79
2021/12/20 07:25:42;;;;;;;8.20;3.80;;;;;;;-0.37;85.16;98658.77;105503;1320;22649;-77
2021/12/20 07:28:10;;;;;;;7.70;4.10;;;;;;;-0.41;85.11;98660.20;105513;1320;25083;-77
2021/12/20 07:30:37;;;;;;;15.60;5.90;;;;;;;-0.42;84.92;98661.75;105487;1320;22582;-77
2021/12/20 07:33:05;;;;;;;13.50;6.30;;;;;;;-0.42;84.83;98664.50;105465;1316;23442;-78
2021/12/20 07:35:32;;;;;;;14.20;6.10;;;;;;;-0.37;84.67;98665.95;105513;1319;25477;-76
2021/12/20 07:38:01;;;;;;;11.40;5.30;;;;;;;-0.34;85.07;98670.83;105489;1320;22572;-77
2021/12/20 07:40:28;;;;;;;13.60;5.90;;;;;;;-0.30;85.17;98669.21;105519;1319;22582;-76
2021/12/20 07:42:55;;;;;;;7.50;3.60;;;;;;;-0.30;85.20;98673.32;105499;1320;25576;-76
2021/12/20 07:45:22;;;;;;;11.90;5.60;;;;;;;-0.29;84.90;98673.81;105515;1319;22572;-77
2021/12/20 07:47:50;;;;;;;12.10;5.00;;;;;;;-0.34;84.83;98673.05;105498;1319;25746;-75
2021/12/20 07:50:20;;;;;;;18.30;6.80;;;;;;;-0.36;84.73;98671.73;105497;1320;24145;-75
2021/12/20 07:52:47;;;;;;;15.50;5.90;;;;;;;-0.34;84.60;98677.19;105479;1318;22566;-75
2021/12/20 07:55:15;;;;;;;15.10;6.00;;;;;;;-0.27;84.37;98672.40;105455;1319;23580;-75
2021/12/20 07:57:42;;;;;;;10.20;5.80;;;;;;;-0.28;84.70;98673.45;105487;1320;22585;-76
2021/12/20 08:00:12;;;;;;;9.00;4.90;;;;;;;-0.26;85.06;98675.63;105484;1320;23512;-76
2021/12/20 08:02:40;;;;;;;9.90;4.80;;;;;;;-0.24;85.27;98672.50;105730;1320;22649;-77
2021/12/20 08:05:07;;;;;;;9.90;5.20;;;;;;;-0.25;85.13;98668.41;105543;1320;22711;-76
2021/12/20 08:07:34;;;;;;;10.90;4.70;;;;;;;-0.24;84.90;98667.89;105472;1318;22672;-75
2021/12/20 08:10:02;;;;;;;19.60;8.50;;;;;;;-0.18;84.61;98672.57;105501;1320;22693;-76
2021/12/20 08:12:29;;;;;;;11.90;5.70;;;;;;;-0.15;84.42;98675.40;105546;1319;22823;-76
2021/12/20 08:14:56;;;;;;;12.60;6.00;;;;;;;-0.15;84.70;98676.75;105507;1320;22606;-77
2021/12/20 08:17:23;;;;;;;12.20;4.80;;;;;;;-0.11;84.91;98678.91;105507;1319;23031;-75
2021/12/20 08:19:50;;;;;;;31.80;11.60;;;;;;;-0.10;84.77;98677.86;105465;1320;22576;-76
2021/12/20 08:22:17;;;;;;;16.80;7.20;;;;;;;-0.10;84.55;98681.80;105460;1320;22597;-76
2021/12/20 08:24:44;;;;;;;11.90;5.10;;;;;;;-0.13;84.31;98681.52;105460;1320;22730;-76
2021/12/20 08:27:11;;;;;;;10.40;5.30;;;;;;;-0.11;84.20;98683.70;105508;1320;22585;-78
2021/12/20 08:29:38;;;;;;;13.40;7.00;;;;;;;-0.06;84.04;98684.42;105522;1319;22582;-77
2021/12/20 08:32:05;;;;;;;42.80;17.10;;;;;;;-0.03;84.33;98686.95;105460;1318;22654;-76
2021/12/20 08:34:32;;;;;;;10.60;5.00;;;;;;;-0.02;84.54;98687.80;105509;1320;22616;-77
2021/12/20 08:37:01;;;;;;;12.40;4.50;;;;;;;-0.03;84.53;98687.64;105499;1320;22622;-76
2021/12/20 08:39:33;;;;;;;9.70;4.40;;;;;;;-0.01;84.29;98687.60;105496;1320;22636;-76
2021/12/20 08:42:03;;;;;;;6.20;2.70;;;;;;;-0.04;84.09;98683.72;105513;1320;22659;-77
2021/12/20 08:44:31;;;;;;;8.40;3.90;;;;;;;-0.01;83.60;98681.10;105482;1319;23377;-77
2021/12/20 08:47:00;;;;;;;6.90;4.50;;;;;;;-0.00;83.85;98681.23;105498;1319;22604;-76
2021/12/20 08:49:27;;;;;;;10.40;4.70;;;;;;;0.04;84.00;98684.41;105762;1318;22660;-76
2021/12/20 08:51:56;;;;;;;9.50;3.40;;;;;;;0.03;84.29;98685.45;105489;1320;22646;-76
2021/12/20 08:54:24;;;;;;;14.60;5.50;;;;;;;0.03;84.15;98685.11;105791;1317;22639;-77
2021/12/20 08:56:51;;;;;;;8.40;4.40;;;;;;;0.04;84.03;98687.31;105520;1320;25988;-76
2021/12/20 08:59:19;;;;;;;5.40;3.10;;;;;;;0.06;83.69;98685.58;105515;1320;22653;-76
2021/12/20 09:01:46;;;;;;;11.80;4.20;;;;;;;0.05;83.49;98694.31;105472;1320;22585;-78
2021/12/20 09:04:13;;;;;;;13.60;4.60;;;;;;;0.07;83.40;98696.48;105496;1320;22559;-77
2021/12/20 09:06:42;;;;;;;11.70;5.60;;;;;;;0.17;83.24;98696.44;105511;1320;22585;-76
2021/12/20 09:09:13;;;;;;;12.80;5.10;;;;;;;0.21;83.22;98696.67;105496;1320;22723;-79
2021/12/20 09:11:41;;;;;;;11.80;5.30;;;;;;;0.23;83.46;98699.72;105508;1320;22893;-77
2021/12/20 09:14:08;;;;;;;32.10;12.60;;;;;;;0.23;83.31;98699.04;105504;1320;26655;-75
2021/12/20 09:16:35;;;;;;;15.50;7.00;;;;;;;0.21;82.98;98698.05;105546;1320;22629;-77
2021/12/20 09:19:03;;;;;;;13.00;4.50;;;;;;;0.19;82.82;98702.05;105743;1320;24247;-80
2021/12/20 09:21:30;;;;;;;6.10;3.60;;;;;;;0.20;82.77;98698.07;105740;1319;25361;-80
2021/12/20 09:23:57;;;;;;;8.00;3.70;;;;;;;0.20;82.70;98706.14;105814;1319;22640;-79
2021/12/20 09:26:25;;;;;;;15.50;6.40;;;;;;;0.19;83.04;98706.83;105787;1319;22706;-79
2021/12/20 09:28:52;;;;;;;8.10;4.00;;;;;;;0.22;83.07;98709.00;105750;1319;22567;-78
2021/12/20 09:31:19;;;;;;;11.00;5.40;;;;;;;0.20;82.91;98710.57;105684;1319;25271;-77
2021/12/20 09:33:46;;;;;;;7.00;3.80;;;;;;;0.23;82.85;98711.19;105720;1320;22666;-77
2021/12/20 09:36:13;;;;;;;8.00;3.90;;;;;;;0.24;82.38;98712.20;105738;1319;24212;-77
2021/12/20 09:38:40;;;;;;;16.00;6.20;;;;;;;0.21;82.42;98716.20;105800;1320;22826;-77
2021/12/20 09:43:38;;;;;;;9.50;3.80;;;;;;;0.21;82.61;98721.52;105782;1320;24144;-77
2021/12/20 09:46:05;;;;;;;9.90;3.40;;;;;;;0.26;82.57;98723.98;105732;1320;22649;-76
2021/12/20 09:48:35;;;;;;;6.70;3.00;;;;;;;0.22;82.59;98726.98;105739;1318;24243;-76
2021/12/20 09:51:05;;;;;;;7.10;2.90;;;;;;;0.17;82.50;98730.18;105763;1320;23970;-78
2021/12/20 09:53:32;;;;;;;8.20;3.10;;;;;;;0.15;82.34;98732.46;105780;1319;22570;-77
2021/12/20 09:56:00;;;;;;;8.80;4.50;;;;;;;0.12;82.06;98729.42;105787;1319;22795;-76
2021/12/20 09:58:28;;;;;;;8.70;4.00;;;;;;;0.16;82.43;98726.27;105659;1320;22564;-77
2021/12/20 10:00:55;;;;;;;7.70;3.50;;;;;;;0.21;82.47;98728.02;105772;1319;22693;-77
2021/12/20 10:03:26;;;;;;;5.80;3.00;;;;;;;0.22;82.58;98722.35;105814;1319;22640;-76
2021/12/20 10:05:55;;;;;;;7.00;2.90;;;;;;;0.17;82.60;98727.42;105777;1318;25870;-77
2021/12/20 10:08:31;;;;;;;5.40;3.10;;;;;;;0.15;82.29;98727.66;105735;1319;22643;-76
2021/12/20 10:11:03;;;;;;;5.70;2.90;;;;;;;0.17;82.07;98727.62;105799;1319;22590;-76
2021/12/20 10:13:32;;;;;;;7.00;3.20;;;;;;;0.27;81.99;98722.59;105833;1320;22656;-78
2021/12/20 10:16:01;;;;;;;5.80;3.10;;;;;;;0.30;81.71;98727.13;105804;1319;24247;-78
2021/12/20 10:18:32;;;;;;;6.00;3.30;;;;;;;0.27;82.17;98729.78;105789;1320;26991;-77
2021/12/20 10:21:02;;;;;;;5.30;3.10;;;;;;;0.23;82.40;98730.55;105805;1320;22669;-77
2021/12/20 10:23:32;;;;;;;8.30;3.60;;;;;;;0.25;82.20;98732.41;105785;1319;22903;-77
2021/12/20 10:26:10;;;;;;;6.80;3.30;;;;;;;0.24;81.99;98733.63;105780;1320;22593;-76
2021/12/20 10:28:37;;;;;;;8.50;3.20;;;;;;;0.24;82.02;98733.11;105752;1319;22587;-76
2021/12/20 10:31:16;;;;;;;8.30;3.50;;;;;;;0.29;81.93;98729.56;105809;1319;22779;-77
2021/12/20 10:33:58;;;;;;;8.80;4.30;;;;;;;0.37;82.17;98736.07;105810;1320;22585;-77
2021/12/20 10:36:25;;;;;;;9.10;4.40;;;;;;;0.43;82.28;98735.61;105803;1320;22593;-77
2021/12/20 10:38:58;;;;;;;6.60;3.60;;;;;;;0.45;82.29;98738.45;105821;1320;22644;-77
2021/12/20 10:41:36;;;;;;;7.50;3.90;;;;;;;0.37;82.44;98739.83;105818;1320;22588;-77
2021/12/20 10:44:15;;;;;;;8.10;3.90;;;;;;;0.32;82.15;98740.10;105806;1320;22584;-76
2021/12/20 10:46:54;;;;;;;7.10;3.60;;;;;;;0.27;81.95;98741.94;105783;1319;22659;-77
2021/12/20 10:49:29;;;;;;;9.60;4.60;;;;;;;0.20;82.01;98744.16;105776;1319;22593;-78
2021/12/20 10:51:58;;;;;;;14.10;5.90;;;;;;;0.14;82.09;98744.80;105803;1320;24231;-78
2021/12/20 10:54:31;;;;;;;10.30;6.20;;;;;;;0.18;82.10;98739.23;105805;1319;24232;-76
2021/12/20 10:57:03;;;;;;;13.20;6.00;;;;;;;0.20;82.44;98744.33;105846;1317;24036;-76
2021/12/20 10:59:32;;;;;;;8.40;4.80;;;;;;;0.18;82.73;98752.60;105806;1319;22593;-77
2021/12/20 11:04:52;;;;;;;9.10;4.60;;;;;;;0.07;82.73;98756.09;105807;1319;22585;-76
2021/12/20 11:09:58;;;;;;;10.60;4.90;;;;;;;0.02;82.67;98755.85;105774;1319;22567;-77
2021/12/20 11:12:31;;;;;;;9.20;4.50;;;;;;;0.02;82.87;98754.48;105769;1320;22652;-76
2021/12/20 11:15:01;;;;;;;8.80;4.50;;;;;;;0.01;83.01;98762.02;105803;1319;22589;-77
2021/12/20 11:17:30;;;;;;;8.20;4.90;;;;;;;-0.02;82.85;98764.14;105773;1320;22646;-77
2021/12/20 11:19:58;;;;;;;11.50;5.10;;;;;;;-0.08;82.86;98763.77;105754;1319;22593;-77
2021/12/20 11:22:25;;;;;;;14.70;5.20;;;;;;;-0.08;82.87;98768.20;105762;1320;22700;-77
2021/12/20 11:24:55;;;;;;;14.90;6.50;;;;;;;-0.09;82.78;98769.09;105782;1320;22693;-77
2021/12/20 11:27:32;;;;;;;11.30;5.50;;;;;;;-0.01;82.86;98770.11;105788;1320;22730;-77
2021/12/20 11:30:03;;;;;;;12.00;5.20;;;;;;;0.02;83.15;98773.64;105786;1320;22589;-77
2021/12/20 11:32:30;;;;;;;10.50;4.20;;;;;;;0.05;83.49;98773.76;105786;1319;22721;-77
2021/12/20 11:34:58;;;;;;;11.30;5.10;;;;;;;0.02;83.53;98770.57;105783;1319;22577;-77
2021/12/20 11:37:27;;;;;;;10.90;4.70;;;;;;;0.01;83.51;98776.58;105782;1317;22664;-77
2021/12/20 11:39:56;;;;;;;10.80;4.90;;;;;;;-0.04;83.09;98772.22;105778;1320;22593;-76
2021/12/20 11:42:24;;;;;;;6.60;3.50;;;;;;;-0.06;83.01;98770.20;105818;1320;22575;-76
2021/12/20 11:45:00;;;;;;;8.40;4.20;;;;;;;-0.06;82.75;98767.30;105776;1320;22566;-77
2021/12/20 11:47:36;;;;;;;10.70;4.00;;;;;;;-0.06;82.67;98766.95;105788;1320;25346;-77
2021/12/20 11:50:11;;;;;;;9.80;5.00;;;;;;;0.00;82.82;98758.27;105762;1320;22808;-78